createdAt,value
2018-02-12T00:00:46.619Z,1.50
2018-02-12T00:03:14.924Z,1.40
2018-02-12T00:05:42.453Z,1.40
2018-02-12T00:08:09.992Z,1.50
2018-02-12T00:10:37.555Z,1.40
2018-02-12T00:13:05.107Z,1.40
2018-02-12T00:15:32.669Z,1.50
2018-02-12T00:18:00.233Z,1.50
2018-02-12T00:20:27.811Z,1.60
2018-02-12T00:22:55.354Z,1.60
2018-02-12T00:25:23.657Z,1.60
2018-02-12T00:27:51.212Z,1.60
2018-02-12T00:30:19.549Z,1.70
2018-02-12T00:32:47.121Z,1.60
2018-02-12T00:35:14.668Z,1.70
2018-02-12T00:37:42.275Z,1.70
2018-02-12T00:40:10.586Z,1.80
2018-02-12T00:42:38.146Z,1.70
2018-02-12T00:45:05.691Z,1.70
2018-02-12T00:47:33.322Z,1.70
2018-02-12T00:50:01.634Z,1.80
2018-02-12T00:52:29.378Z,1.80
2018-02-12T00:54:56.913Z,1.80
2018-02-12T00:57:24.469Z,1.80
2018-02-12T00:59:52.033Z,1.80
2018-02-12T01:02:19.614Z,1.90
2018-02-12T01:04:47.177Z,1.90
2018-02-12T01:07:14.758Z,1.90
2018-02-12T01:09:42.318Z,2.00
2018-02-12T01:12:09.917Z,2.00
2018-02-12T01:14:37.466Z,2.00
2018-02-12T01:17:05.039Z,2.10
2018-02-12T01:19:32.563Z,2.10
2018-02-12T01:22:00.131Z,2.20
2018-02-12T01:24:27.709Z,2.20
2018-02-12T01:26:55.240Z,2.30
2018-02-12T01:29:22.849Z,2.30
2018-02-12T01:31:50.392Z,2.30
2018-02-12T01:34:17.977Z,2.30
2018-02-12T01:36:45.541Z,2.30
2018-02-12T01:39:13.128Z,2.20
2018-02-12T01:41:40.705Z,2.20
2018-02-12T01:44:08.261Z,2.10
2018-02-12T01:46:35.809Z,2.20
2018-02-12T01:49:03.364Z,2.10
2018-02-12T01:51:31.102Z,2.10
2018-02-12T01:53:58.659Z,2.10
2018-02-12T01:56:26.201Z,2.10
2018-02-12T01:58:53.756Z,2.10
2018-02-12T02:01:21.296Z,2.10
2018-02-12T02:03:48.873Z,2.10
2018-02-12T02:06:17.215Z,2.10
2018-02-12T02:08:44.779Z,2.10
2018-02-12T02:11:12.326Z,2.10
2018-02-12T02:13:39.942Z,2.10
2018-02-12T02:16:07.481Z,2.10
2018-02-12T02:18:35.088Z,2.10
2018-02-12T02:21:02.637Z,2.20
2018-02-12T02:23:30.238Z,2.10
2018-02-12T02:25:58.552Z,2.10
2018-02-12T02:28:26.087Z,2.10
2018-02-12T02:30:53.627Z,2.10
2018-02-12T02:33:21.165Z,2.10
2018-02-12T02:35:48.681Z,2.10
2018-02-12T02:38:16.287Z,2.10
2018-02-12T02:40:43.830Z,2.00
2018-02-12T02:43:11.373Z,1.90
2018-02-12T02:45:39.706Z,1.90
2018-02-12T02:48:07.219Z,1.90
2018-02-12T02:50:34.748Z,1.90
2018-02-12T02:53:02.255Z,1.80
2018-02-12T02:55:29.792Z,1.80
2018-02-12T02:57:57.323Z,1.90
2018-02-12T03:00:25.649Z,1.80
2018-02-12T03:02:53.173Z,1.80
2018-02-12T03:05:21.480Z,1.70
2018-02-12T03:07:49.760Z,1.70
2018-02-12T03:10:18.089Z,1.70
2018-02-12T03:12:45.612Z,1.70
2018-02-12T03:15:13.629Z,1.70
2018-02-12T03:17:41.141Z,1.70
2018-02-12T03:20:08.698Z,1.70
2018-02-12T03:22:36.271Z,1.70
2018-02-12T03:25:03.811Z,1.80
2018-02-12T03:27:31.433Z,1.80
2018-02-12T03:29:58.973Z,1.90
2018-02-12T03:32:26.489Z,1.80
2018-02-12T03:34:54.040Z,1.80
2018-02-12T03:37:21.556Z,1.70
2018-02-12T03:39:49.863Z,1.70
2018-02-12T03:42:17.415Z,1.60
2018-02-12T03:44:45.721Z,1.50
2018-02-12T03:47:14.073Z,1.50
2018-02-12T03:49:41.629Z,1.50
2018-02-12T03:52:09.145Z,1.40
2018-02-12T03:54:37.473Z,1.40
2018-02-12T03:57:05.757Z,1.50
2018-02-12T03:59:33.293Z,1.40
2018-02-12T04:02:00.844Z,1.40
2018-02-12T04:04:28.371Z,1.40
2018-02-12T04:06:55.915Z,1.50
2018-02-12T04:09:23.437Z,1.50
2018-02-12T04:11:50.997Z,1.60
2018-02-12T04:14:18.544Z,1.60
2018-02-12T04:16:46.093Z,1.60
2018-02-12T04:19:14.414Z,1.60
2018-02-12T04:21:41.997Z,1.60
2018-02-12T04:24:09.517Z,1.80
2018-02-12T04:26:37.855Z,1.70
2018-02-12T04:29:05.387Z,1.70
2018-02-12T04:31:33.695Z,1.80
2018-02-12T04:34:02.157Z,1.80
2018-02-12T04:36:30.524Z,1.80
2018-02-12T04:38:58.061Z,1.80
2018-02-12T04:41:25.598Z,1.80
2018-02-12T04:43:53.114Z,1.80
2018-02-12T04:46:20.693Z,1.80
2018-02-12T04:48:48.350Z,1.80
2018-02-12T04:51:15.894Z,1.80
2018-02-12T04:53:44.176Z,1.80
2018-02-12T04:56:12.474Z,1.80
2018-02-12T04:58:40.765Z,1.80
2018-02-12T05:01:09.089Z,1.80
2018-02-12T05:03:36.614Z,1.80
2018-02-12T05:06:04.177Z,1.70
2018-02-12T05:08:31.734Z,1.60
2018-02-12T05:10:59.337Z,1.50
2018-02-12T05:13:27.669Z,1.60
2018-02-12T05:15:55.204Z,1.50
2018-02-12T05:18:23.512Z,1.40
2018-02-12T05:20:51.043Z,1.40
2018-02-12T05:23:18.591Z,1.30
2018-02-12T05:25:46.113Z,1.20
2018-02-12T05:28:13.651Z,1.20
2018-02-12T05:30:41.189Z,1.20
2018-02-12T05:33:08.742Z,1.20
2018-02-12T05:35:36.277Z,1.30
2018-02-12T05:38:03.827Z,1.30
2018-02-12T05:40:31.346Z,1.30
2018-02-12T05:43:04.661Z,1.30
2018-02-12T05:45:32.177Z,1.30
2018-02-12T05:47:59.730Z,1.20
2018-02-12T05:50:27.257Z,1.20
2018-02-12T05:52:55.576Z,1.30
2018-02-12T05:55:23.100Z,1.30
2018-02-12T05:57:51.418Z,1.30
2018-02-12T06:00:18.945Z,1.30
2018-02-12T06:02:46.489Z,1.30
2018-02-12T06:05:14.030Z,1.40
2018-02-12T06:07:41.589Z,1.40
2018-02-12T06:10:09.129Z,1.50
2018-02-12T06:12:36.664Z,1.50
2018-02-12T06:15:04.220Z,1.60
2018-02-12T06:17:31.772Z,1.60
2018-02-12T06:20:00.069Z,1.60
2018-02-12T06:22:28.424Z,1.60
2018-02-12T06:24:55.948Z,1.60
2018-02-12T06:27:23.475Z,1.60
2018-02-12T06:29:51.037Z,1.60
2018-02-12T06:32:19.359Z,1.60
2018-02-12T06:34:47.902Z,1.40
2018-02-12T06:37:15.464Z,1.40
2018-02-12T06:39:43.002Z,1.20
2018-02-12T06:42:11.311Z,1.10
2018-02-12T06:44:38.859Z,1.10
2018-02-12T06:47:06.516Z,1.10
2018-02-12T06:49:34.072Z,1.10
2018-02-12T06:52:01.634Z,1.20
2018-02-12T06:54:29.201Z,1.20
2018-02-12T06:56:57.517Z,1.20
2018-02-12T06:59:25.072Z,1.20
2018-02-12T07:01:52.591Z,1.20
2018-02-12T07:04:20.910Z,1.10
2018-02-12T07:06:48.429Z,1.10
2018-02-12T07:09:16.774Z,1.20
2018-02-12T07:11:44.296Z,1.10
2018-02-12T07:14:11.839Z,1.20
2018-02-12T07:16:40.983Z,1.30
2018-02-12T07:19:09.298Z,1.30
2018-02-12T07:21:36.832Z,1.30
2018-02-12T07:24:04.392Z,1.40
2018-02-12T07:26:31.929Z,1.50
2018-02-12T07:28:59.490Z,1.60
2018-02-12T07:31:27.006Z,1.60
2018-02-12T07:33:54.526Z,1.60
2018-02-12T07:36:22.085Z,1.70
2018-02-12T07:38:49.605Z,1.70
2018-02-12T07:41:17.142Z,1.70
2018-02-12T07:43:44.658Z,1.70
2018-02-12T07:46:12.230Z,1.60
2018-02-12T07:48:39.751Z,1.60
2018-02-12T07:51:07.302Z,1.60
2018-02-12T07:53:35.586Z,1.70
2018-02-12T07:56:03.892Z,1.80
2018-02-12T07:58:32.214Z,1.90
2018-02-12T08:00:59.757Z,1.90
2018-02-12T08:03:27.285Z,1.90
2018-02-12T08:05:54.822Z,2.10
2018-02-12T08:08:22.349Z,2.30
2018-02-12T08:10:49.901Z,2.40
2018-02-12T08:13:17.438Z,2.50
2018-02-12T08:15:44.993Z,2.30
2018-02-12T08:18:12.530Z,2.10
2018-02-12T08:20:40.098Z,2.00
2018-02-12T08:23:07.631Z,1.90
2018-02-12T08:25:35.177Z,1.80
2018-02-12T08:28:03.545Z,2.00
2018-02-12T08:30:31.898Z,2.00
2018-02-12T08:33:00.189Z,2.00
2018-02-12T08:35:27.736Z,2.00
2018-02-12T08:37:55.405Z,1.90
2018-02-12T08:40:22.983Z,1.90
2018-02-12T08:42:50.501Z,1.90
2018-02-12T08:45:18.036Z,2.00
2018-02-12T08:47:45.651Z,2.00
2018-02-12T08:50:13.191Z,2.10
2018-02-12T08:52:40.759Z,2.10
2018-02-12T08:55:08.286Z,2.30
2018-02-12T08:57:35.829Z,2.30
2018-02-12T09:00:03.386Z,2.30
2018-02-12T09:02:30.930Z,2.40
2018-02-12T09:04:58.465Z,2.50
2018-02-12T09:07:26.014Z,2.50
2018-02-12T09:09:53.547Z,2.60
2018-02-12T09:12:21.093Z,2.70
2018-02-12T09:14:48.633Z,2.80
2018-02-12T09:17:16.185Z,3.00
2018-02-12T09:19:43.709Z,3.00
2018-02-12T09:22:11.285Z,3.10
2018-02-12T09:24:39.573Z,3.20
2018-02-12T09:27:07.905Z,3.10
2018-02-12T09:29:35.444Z,3.00
2018-02-12T09:32:03.209Z,2.80
2018-02-12T09:34:30.746Z,2.60
2018-02-12T09:36:58.309Z,2.50
2018-02-12T09:39:26.634Z,2.60
2018-02-12T09:41:54.386Z,2.60
2018-02-12T09:44:21.917Z,2.50
2018-02-12T09:46:49.721Z,2.50
2018-02-12T09:49:17.255Z,2.50
2018-02-12T09:51:44.842Z,2.50
2018-02-12T09:54:12.366Z,2.50
2018-02-12T09:56:39.978Z,2.50
2018-02-12T09:59:08.260Z,2.50
2018-02-12T10:01:35.787Z,2.40
2018-02-12T10:04:03.682Z,2.50
2018-02-12T10:06:31.343Z,2.50
2018-02-12T10:08:58.886Z,2.50
2018-02-12T10:11:26.450Z,2.50
2018-02-12T10:13:54.007Z,2.50
2018-02-12T10:16:21.536Z,2.60
2018-02-12T10:18:49.070Z,2.50
2018-02-12T10:21:16.589Z,2.50
2018-02-12T10:23:44.122Z,2.60
2018-02-12T10:26:11.705Z,2.70
2018-02-12T10:28:39.601Z,2.70
2018-02-12T10:31:07.913Z,2.90
2018-02-12T10:33:36.471Z,3.00
2018-02-12T10:36:04.077Z,3.00
2018-02-12T10:38:31.637Z,3.10
2018-02-12T10:40:59.211Z,3.30
2018-02-12T10:43:26.753Z,3.30
2018-02-12T10:45:55.120Z,3.40
2018-02-12T10:48:22.680Z,3.40
2018-02-12T10:50:50.206Z,3.40
2018-02-12T10:53:17.743Z,3.30
2018-02-12T10:55:45.261Z,3.20
2018-02-12T10:58:12.813Z,3.00
2018-02-12T11:00:40.457Z,3.10
2018-02-12T11:03:08.003Z,3.30
2018-02-12T11:05:36.325Z,3.20
2018-02-12T11:08:03.960Z,3.20
2018-02-12T11:10:31.556Z,3.20
2018-02-12T11:12:59.109Z,3.20
2018-02-12T11:15:27.028Z,3.30
2018-02-12T11:17:54.727Z,3.30
2018-02-12T11:20:22.500Z,3.40
2018-02-12T11:22:50.351Z,3.50
2018-02-12T11:25:18.093Z,3.50
2018-02-12T11:27:46.159Z,3.50
2018-02-12T11:30:13.864Z,3.70
2018-02-12T11:32:41.624Z,3.40
2018-02-12T11:35:10.046Z,3.20
2018-02-12T11:37:37.908Z,3.20
2018-02-12T11:40:05.755Z,3.30
2018-02-12T11:42:33.322Z,3.40
2018-02-12T11:45:00.898Z,3.60
2018-02-12T11:47:28.470Z,3.70
2018-02-12T11:49:56.070Z,3.80
2018-02-12T11:52:23.668Z,3.80
2018-02-12T11:54:51.263Z,3.90
2018-02-12T11:57:18.924Z,4.20
2018-02-12T11:59:46.803Z,4.30
2018-02-12T12:02:14.756Z,4.30
2018-02-12T12:04:42.379Z,4.50
2018-02-12T12:07:09.948Z,4.40
2018-02-12T12:09:38.476Z,5.00
2018-02-12T12:12:06.856Z,4.90
2018-02-12T12:14:34.553Z,4.90
2018-02-12T12:17:03.182Z,4.60
2018-02-12T12:19:31.378Z,4.00
2018-02-12T12:21:59.274Z,3.40
2018-02-12T12:24:27.282Z,3.00
2018-02-12T12:26:56.883Z,2.50
2018-02-12T12:29:30.650Z,2.40
2018-02-12T12:31:58.622Z,2.60
2018-02-12T12:34:27.756Z,2.80
2018-02-12T12:36:55.618Z,2.80
2018-02-12T12:39:23.314Z,2.90
2018-02-12T12:41:51.244Z,2.90
2018-02-12T12:44:18.957Z,3.10
2018-02-12T12:46:46.655Z,3.30
2018-02-12T12:49:14.359Z,3.90
2018-02-12T12:51:43.260Z,3.90
2018-02-12T12:54:12.167Z,3.70
2018-02-12T12:56:40.608Z,3.40
2018-02-12T12:59:08.380Z,3.40
2018-02-12T13:01:36.159Z,3.50
2018-02-12T13:04:05.354Z,3.40
2018-02-12T13:06:34.047Z,3.50
2018-02-12T13:09:02.448Z,3.50
2018-02-12T13:11:33.702Z,3.50
2018-02-12T13:14:01.762Z,3.50
2018-02-12T13:16:30.531Z,3.10
2018-02-12T13:18:58.936Z,2.80
2018-02-12T13:21:27.094Z,2.50
2018-02-12T13:23:54.841Z,2.00
2018-02-12T13:26:23.714Z,1.70
2018-02-12T13:28:52.902Z,1.80
2018-02-12T13:31:20.833Z,1.80
2018-02-12T13:33:49.302Z,1.70
2018-02-12T13:36:16.992Z,1.70
2018-02-12T13:38:46.472Z,1.60
2018-02-12T13:41:14.146Z,1.60
2018-02-12T13:43:41.788Z,1.70
2018-02-12T13:46:09.348Z,1.90
2018-02-12T13:48:37.652Z,2.10
2018-02-12T13:51:05.173Z,2.10
2018-02-12T13:53:32.700Z,2.20
2018-02-12T13:56:00.230Z,2.30
2018-02-12T13:58:28.685Z,2.30
2018-02-12T14:00:56.197Z,2.30
2018-02-12T14:03:23.730Z,2.20
2018-02-12T14:05:51.244Z,1.80
2018-02-12T14:08:18.850Z,0.90
2018-02-12T14:10:46.358Z,0.60
2018-02-12T14:13:13.917Z,0.50
2018-02-12T14:15:41.445Z,0.60
2018-02-12T14:18:08.967Z,0.70
2018-02-12T14:20:36.478Z,0.80
2018-02-12T14:23:04.775Z,1.40
2018-02-12T14:25:33.065Z,1.60
2018-02-12T14:28:01.364Z,1.60
2018-02-12T14:30:28.877Z,1.60
2018-02-12T14:32:56.418Z,1.50
2018-02-12T14:35:23.931Z,1.50
2018-02-12T14:37:51.461Z,1.40
2018-02-12T14:40:18.987Z,1.50
2018-02-12T14:42:46.526Z,1.50
2018-02-12T14:45:14.044Z,1.40
2018-02-12T14:47:42.392Z,1.20
2018-02-12T14:50:09.914Z,1.20
2018-02-12T14:52:38.220Z,1.40
2018-02-12T14:55:05.738Z,1.40
2018-02-12T14:57:33.253Z,1.40
2018-02-12T15:00:01.545Z,1.60
2018-02-12T15:02:30.000Z,1.70
2018-02-12T15:04:58.119Z,1.70
2018-02-12T15:07:26.394Z,1.70
2018-02-12T15:09:53.916Z,1.70
2018-02-12T15:12:21.442Z,1.70
2018-02-12T15:14:49.748Z,1.70
2018-02-12T15:17:17.253Z,1.70
2018-02-12T15:19:44.790Z,1.60
2018-02-12T15:22:12.395Z,1.50
2018-02-12T15:24:39.933Z,1.50
2018-02-12T15:27:07.444Z,1.50
2018-02-12T15:29:34.994Z,1.50
2018-02-12T15:32:02.501Z,1.50
2018-02-12T15:34:30.040Z,1.50
2018-02-12T15:36:57.550Z,1.50
2018-02-12T15:39:25.102Z,1.50
2018-02-12T15:41:52.625Z,1.50
2018-02-12T15:44:20.943Z,1.50
2018-02-12T15:46:48.459Z,1.50
2018-02-12T15:49:15.992Z,1.60
2018-02-12T15:51:43.504Z,1.60
2018-02-12T15:54:11.041Z,1.60
2018-02-12T15:56:38.551Z,1.60
2018-02-12T15:59:06.094Z,1.60
2018-02-12T16:01:33.618Z,1.60
2018-02-12T16:04:01.944Z,1.50
2018-02-12T16:06:29.466Z,1.40
2018-02-12T16:08:57.749Z,1.40
2018-02-12T16:11:25.280Z,1.40
2018-02-12T16:13:52.801Z,1.30
2018-02-12T16:16:20.330Z,1.30
2018-02-12T16:18:47.841Z,1.30
2018-02-12T16:21:16.143Z,1.20
2018-02-12T16:23:43.652Z,1.20
2018-02-12T16:26:11.188Z,1.30
2018-02-12T16:28:39.478Z,1.20
2018-02-12T16:31:07.035Z,1.20
2018-02-12T16:33:35.309Z,1.40
2018-02-12T16:36:02.875Z,1.40
2018-02-12T16:38:30.396Z,1.40
2018-02-12T16:40:57.924Z,1.50
2018-02-12T16:43:25.432Z,1.20
2018-02-12T16:45:52.958Z,0.90
2018-02-12T16:48:20.473Z,0.70
2018-02-12T16:50:48.024Z,0.70
2018-02-12T16:53:16.301Z,0.80
2018-02-12T16:55:43.853Z,0.70
2018-02-12T16:58:11.368Z,0.90
2018-02-12T17:00:39.775Z,0.90
2018-02-12T17:03:07.297Z,0.90
2018-02-12T17:05:34.840Z,0.90
2018-02-12T17:08:02.350Z,0.90
2018-02-12T17:10:29.894Z,0.90
2018-02-12T17:12:57.412Z,0.80
2018-02-12T17:15:25.701Z,0.80
2018-02-12T17:17:53.972Z,0.80
2018-02-12T17:20:21.524Z,0.70
2018-02-12T17:22:49.034Z,0.70
2018-02-12T17:25:17.332Z,0.60
2018-02-12T17:27:44.860Z,0.60
2018-02-12T17:30:12.373Z,0.60
2018-02-12T17:32:39.910Z,0.60
2018-02-12T17:35:07.408Z,0.60
2018-02-12T17:37:35.709Z,0.50
2018-02-12T17:40:03.258Z,0.50
2018-02-12T17:42:31.555Z,0.40
2018-02-12T17:44:59.827Z,0.40
2018-02-12T17:47:27.442Z,0.40
2018-02-12T17:49:54.958Z,0.50
2018-02-12T17:52:22.545Z,0.50
2018-02-12T17:54:50.025Z,0.50
2018-02-12T17:57:18.339Z,0.60
2018-02-12T17:59:45.852Z,0.60
2018-02-12T18:02:13.833Z,0.60
2018-02-12T18:04:41.359Z,0.60
2018-02-12T18:07:08.892Z,0.60
2018-02-12T18:09:36.404Z,0.70
2018-02-12T18:12:03.948Z,0.70
2018-02-12T18:14:31.472Z,0.70
2018-02-12T18:16:59.022Z,0.70
2018-02-12T18:19:26.545Z,0.80
2018-02-12T18:21:54.154Z,0.70
2018-02-12T18:24:22.437Z,0.60
2018-02-12T18:26:50.737Z,0.60
2018-02-12T18:29:18.259Z,0.60
2018-02-12T18:31:47.063Z,0.50
2018-02-12T18:34:14.582Z,0.50
2018-02-12T18:36:42.131Z,0.50
2018-02-12T18:39:09.680Z,0.50
2018-02-12T18:41:38.724Z,0.50
2018-02-12T18:44:07.041Z,0.30
2018-02-12T18:46:34.568Z,0.30
2018-02-12T18:49:02.114Z,0.20
2018-02-12T18:51:29.655Z,0.20
2018-02-12T18:53:57.306Z,0.20
2018-02-12T18:56:24.820Z,0.30
2018-02-12T18:58:52.357Z,0.40
2018-02-12T19:01:20.631Z,0.50
2018-02-12T19:03:48.934Z,0.40
2018-02-12T19:06:16.456Z,0.40
2018-02-12T19:08:44.751Z,0.40
2018-02-12T19:11:12.305Z,0.40
2018-02-12T19:13:39.846Z,0.50
2018-02-12T19:16:07.374Z,0.60
2018-02-12T19:18:34.913Z,0.50
2018-02-12T19:21:02.440Z,0.50
2018-02-12T19:23:30.753Z,0.50
2018-02-12T19:25:58.273Z,0.50
2018-02-12T19:28:25.809Z,0.40
2018-02-12T19:30:53.328Z,0.30
2018-02-12T19:33:20.865Z,0.30
2018-02-12T19:35:48.378Z,0.30
2018-02-12T19:38:15.911Z,0.30
2018-02-12T19:40:43.458Z,0.20
2018-02-12T19:43:11.038Z,0.10
2018-02-12T19:45:38.561Z,0.10
2018-02-12T19:48:06.073Z,0.10
2018-02-12T19:50:33.614Z,0.00
2018-02-12T19:53:01.137Z,0.10
2018-02-12T19:55:28.680Z,0.00
2018-02-12T19:57:56.197Z,0.00
2018-02-12T20:00:23.743Z,0.00
2018-02-12T20:02:51.264Z,-0.10
2018-02-12T20:05:18.820Z,-0.10
2018-02-12T20:07:46.344Z,-0.20
2018-02-12T20:10:13.884Z,-0.20
2018-02-12T20:12:41.409Z,-0.30
2018-02-12T20:15:08.979Z,-0.20
2018-02-12T20:17:36.509Z,-0.20
2018-02-12T20:20:04.810Z,-0.40
2018-02-12T20:22:32.323Z,-0.40
2018-02-12T20:24:59.848Z,-0.40
2018-02-12T20:27:28.138Z,-0.50
2018-02-12T20:29:56.436Z,-0.50
2018-02-12T20:32:23.960Z,-0.50
2018-02-12T20:34:51.504Z,-0.60
2018-02-12T20:37:19.029Z,-0.60
2018-02-12T20:39:47.358Z,-0.60
2018-02-12T20:42:14.877Z,-0.70
2018-02-12T20:44:42.413Z,-0.60
2018-02-12T20:47:09.938Z,-0.70
2018-02-12T20:49:38.250Z,-0.60
2018-02-12T20:52:05.768Z,-0.60
2018-02-12T20:54:33.310Z,-0.70
2018-02-12T20:57:00.833Z,-0.80
2018-02-12T20:59:29.234Z,-0.90
2018-02-12T21:01:57.517Z,-1.00
2018-02-12T21:04:25.808Z,-1.00
2018-02-12T21:06:54.130Z,-1.00
2018-02-12T21:09:21.658Z,-1.00
2018-02-12T21:11:50.162Z,-1.00
2018-02-12T21:14:18.500Z,-0.90
2018-02-12T21:16:46.017Z,-0.90
2018-02-12T21:19:13.533Z,-0.90
2018-02-12T21:21:41.077Z,-0.90
2018-02-12T21:24:09.372Z,-1.10
2018-02-12T21:26:36.926Z,-1.10
2018-02-12T21:29:05.214Z,-1.10
2018-02-12T21:31:33.540Z,-1.10
2018-02-12T21:34:01.060Z,-1.10
2018-02-12T21:36:28.621Z,-1.20
2018-02-12T21:38:56.138Z,-1.30
2018-02-12T21:41:23.685Z,-1.30
2018-02-12T21:43:51.210Z,-1.30
2018-02-12T21:46:18.755Z,-1.30
2018-02-12T21:48:46.290Z,-1.30
2018-02-12T21:51:13.832Z,-1.30
2018-02-12T21:53:41.358Z,-1.30
2018-02-12T21:56:09.657Z,-1.30
2018-02-12T21:58:37.203Z,-1.40
2018-02-12T22:01:04.758Z,-1.40
2018-02-12T22:03:32.293Z,-1.40
2018-02-12T22:05:59.828Z,-1.50
2018-02-12T22:08:28.137Z,-1.40
2018-02-12T22:10:55.723Z,-1.40
2018-02-12T22:13:23.248Z,-1.40
2018-02-12T22:15:50.930Z,-1.30
2018-02-12T22:18:18.458Z,-1.20
2018-02-12T22:20:46.039Z,-1.20
2018-02-12T22:23:14.010Z,-1.20
2018-02-12T22:25:41.599Z,-1.10
2018-02-12T22:28:09.157Z,-1.20
2018-02-12T22:30:36.692Z,-1.10
2018-02-12T22:33:05.005Z,-1.10
2018-02-12T22:35:32.609Z,-1.10
2018-02-12T22:38:00.155Z,-1.10
2018-02-12T22:40:27.693Z,-1.10
2018-02-12T22:42:56.002Z,-1.20
2018-02-12T22:45:23.530Z,-1.20
2018-02-12T22:47:51.128Z,-1.20
2018-02-12T22:50:19.449Z,-1.20
2018-02-12T22:52:47.154Z,-1.20
2018-02-12T22:55:14.673Z,-1.20
2018-02-12T22:57:42.978Z,-1.20
2018-02-12T23:00:10.522Z,-1.30
2018-02-12T23:02:38.843Z,-1.20
2018-02-12T23:05:06.356Z,-1.20
2018-02-12T23:07:33.904Z,-1.20
2018-02-12T23:10:01.429Z,-1.20
2018-02-12T23:12:29.775Z,-1.20
2018-02-12T23:14:57.313Z,-1.20
2018-02-12T23:17:24.881Z,-1.20
2018-02-12T23:19:52.416Z,-1.10
2018-02-12T23:22:20.037Z,-1.00
2018-02-12T23:24:47.575Z,-1.00
2018-02-12T23:27:15.135Z,-1.00
2018-02-12T23:29:42.674Z,-1.00
2018-02-12T23:32:10.232Z,-1.00
2018-02-12T23:34:37.772Z,-1.00
2018-02-12T23:37:06.064Z,-0.90
2018-02-12T23:39:33.804Z,-0.90
2018-02-12T23:42:01.325Z,-1.00
2018-02-12T23:44:28.886Z,-1.00
2018-02-12T23:46:56.409Z,-1.00
2018-02-12T23:49:23.964Z,-0.90
2018-02-12T23:51:51.484Z,-1.00
2018-02-12T23:54:24.737Z,-1.10
2018-02-12T23:56:52.254Z,-1.10
2018-02-12T23:59:19.795Z,-1.10
